Terminal Aerodrome Forecast
Issued by NWS

Home | Current Version | Previous Version | Text Only | Print | Product List | Glossary On
Versions: 1 2 3 4 5 6 7 8 9 10 11 12 13 14 15
000
FTUS46 KSEW 230520
TAFPAE
TAF
KPAE 230520Z 2306/2406 36003KT P6SM SKC
     FM230900 VRB03KT P6SM SKC
     FM231800 17012KT P6SM OVC080
     FM232200 17016G24KT 5SM -SN OVC030
     FM240400 18010KT P6SM -SHRA BKN012 OVC030=

USA.gov is the U.S. government's official web portal to all federal, state and local government web resources and services.